createdAt,value
2022-12-22T00:01:50.230Z,99212.78
2022-12-22T00:04:17.727Z,99209.56
2022-12-22T00:06:44.850Z,99202.84
2022-12-22T00:09:11.787Z,99210.63
2022-12-22T00:11:39.293Z,99191.59
2022-12-22T00:14:08.822Z,99195.13
2022-12-22T00:16:38.543Z,99193.56
2022-12-22T00:19:13.733Z,99190.47
2022-12-22T00:21:40.893Z,99183.91
2022-12-22T00:24:08.525Z,99188.16
2022-12-22T00:26:36.481Z,99174.03
2022-12-22T00:29:04.238Z,99165.34
2022-12-22T00:31:31.347Z,99169.84
2022-12-22T00:33:59.967Z,99165.34
2022-12-22T00:36:28.065Z,99168.28
2022-12-22T00:38:54.916Z,99164.38
2022-12-22T00:41:21.750Z,99158.63
2022-12-22T00:43:48.790Z,99170.22
2022-12-22T00:46:20.824Z,99163.41
2022-12-22T00:48:49.326Z,99170.56
2022-12-22T00:51:18.984Z,99168.09
2022-12-22T00:53:46.004Z,99164.41
2022-12-22T00:56:12.882Z,99164.19
2022-12-22T00:58:39.825Z,99163.59
2022-12-22T01:01:06.925Z,99160.28
2022-12-22T01:03:33.758Z,99166.75
2022-12-22T01:06:03.285Z,99161.44
2022-12-22T01:08:32.443Z,99158.72
2022-12-22T01:10:59.471Z,99160.91
2022-12-22T01:13:27.584Z,99156.81
2022-12-22T01:15:54.420Z,99160.91
2022-12-22T01:18:21.447Z,99166.78
2022-12-22T01:20:48.420Z,99172.41
2022-12-22T01:23:15.253Z,99165.34
2022-12-22T01:25:43.584Z,99171.78
2022-12-22T01:28:14.901Z,99167.06
2022-12-22T01:30:42.663Z,99159.56
2022-12-22T01:33:12.860Z,99159.72
2022-12-22T01:35:40.312Z,99154.09
2022-12-22T01:38:07.353Z,99135.50
2022-12-22T01:40:34.407Z,99132.50
2022-12-22T01:43:02.693Z,99124.88
2022-12-22T01:45:35.363Z,99119.25
2022-12-22T01:48:02.192Z,99123.13
2022-12-22T01:50:36.540Z,99124.47
2022-12-22T01:53:08.311Z,99113.28
2022-12-22T01:55:35.172Z,99116.44
2022-12-22T01:58:04.765Z,99115.31
2022-12-22T02:00:31.791Z,99109.09
2022-12-22T02:03:01.059Z,99111.88
2022-12-22T02:05:29.275Z,99112.63
2022-12-22T02:08:13.956Z,99106.66
2022-12-22T02:11:04.904Z,99104.06
2022-12-22T02:14:03.641Z,99105.97
2022-12-22T02:16:44.798Z,99095.53
2022-12-22T02:19:29.905Z,99094.50
2022-12-22T02:22:09.953Z,99085.25
2022-12-22T02:24:46.024Z,99081.41
2022-12-22T02:27:16.400Z,99082.22
2022-12-22T02:29:51.748Z,99079.28
2022-12-22T02:32:18.657Z,99088.91
2022-12-22T02:34:45.455Z,99097.00
2022-12-22T02:37:25.400Z,99102.88
2022-12-22T02:40:02.758Z,99098.66
2022-12-22T02:42:39.603Z,99092.44
2022-12-22T02:45:24.525Z,99094.47
2022-12-22T02:48:04.138Z,99083.66
2022-12-22T02:50:40.352Z,99091.53
2022-12-22T02:53:09.649Z,99084.84
2022-12-22T02:55:36.593Z,99086.47
2022-12-22T02:58:05.215Z,99078.16
2022-12-22T03:00:32.285Z,99067.50
2022-12-22T03:02:59.604Z,99060.47
2022-12-22T03:05:26.667Z,99054.22
2022-12-22T03:07:54.683Z,99053.63
2022-12-22T03:10:21.655Z,99051.38
2022-12-22T03:12:48.412Z,99047.94
2022-12-22T03:15:17.017Z,99043.97
2022-12-22T03:17:43.788Z,99035.06
2022-12-22T03:20:11.009Z,99036.22
2022-12-22T03:22:37.989Z,99030.84
2022-12-22T03:25:06.291Z,99019.66
2022-12-22T03:27:33.251Z,99023.69
2022-12-22T03:30:00.093Z,99025.13
2022-12-22T03:32:28.299Z,99014.53
2022-12-22T03:34:55.289Z,99012.09
2022-12-22T03:37:22.069Z,99007.97
2022-12-22T03:39:49.125Z,99009.84
2022-12-22T03:42:15.913Z,99001.53
2022-12-22T03:44:42.697Z,98999.16
2022-12-22T03:47:09.490Z,98991.88
2022-12-22T03:49:37.679Z,98990.38
2022-12-22T03:52:04.623Z,98987.19
2022-12-22T03:54:31.607Z,98984.38
2022-12-22T03:56:58.668Z,98985.31
2022-12-22T03:59:25.393Z,98978.84
2022-12-22T04:01:54.839Z,98985.94
2022-12-22T04:04:25.431Z,98990.50
2022-12-22T04:06:54.851Z,98984.16
2022-12-22T04:09:21.625Z,98986.72
2022-12-22T04:11:48.632Z,98972.66
2022-12-22T04:14:15.464Z,98984.03
2022-12-22T04:16:42.730Z,98979.91
2022-12-22T04:19:09.773Z,98988.97
2022-12-22T04:21:37.432Z,98984.63
2022-12-22T04:24:06.921Z,98976.28
2022-12-22T04:26:34.204Z,98973.59
2022-12-22T04:29:01.025Z,98980.16
2022-12-22T04:31:27.889Z,98976.88
2022-12-22T04:33:55.102Z,98970.41
2022-12-22T04:36:21.816Z,98967.38
2022-12-22T04:38:48.813Z,98956.56
2022-12-22T04:41:16.896Z,98961.00
2022-12-22T04:43:43.666Z,98963.00
2022-12-22T04:46:10.688Z,98953.50
2022-12-22T04:48:38.033Z,98952.22
2022-12-22T04:51:05.699Z,98958.06
2022-12-22T04:53:33.322Z,98939.25
2022-12-22T04:56:03.827Z,98948.28
2022-12-22T04:58:33.016Z,98959.72
2022-12-22T05:01:09.748Z,98953.28
2022-12-22T05:03:36.633Z,98946.78
2022-12-22T05:06:04.187Z,98946.56
2022-12-22T05:08:31.463Z,98939.97
2022-12-22T05:10:58.196Z,98947.69
2022-12-22T05:13:25.656Z,98935.88
2022-12-22T05:15:53.859Z,98940.06
2022-12-22T05:18:20.864Z,98927.03
2022-12-22T05:20:47.892Z,98926.94
2022-12-22T05:23:14.848Z,98933.06
2022-12-22T05:25:41.773Z,98926.66
2022-12-22T05:28:08.544Z,98927.59
2022-12-22T05:30:35.452Z,98920.09
2022-12-22T05:33:03.669Z,98927.25
2022-12-22T05:35:30.683Z,98932.44
2022-12-22T05:37:57.433Z,98925.28
2022-12-22T05:40:24.992Z,98927.97
2022-12-22T05:42:51.696Z,98932.53
2022-12-22T05:45:20.767Z,98933.00
2022-12-22T05:47:50.951Z,98944.56
2022-12-22T05:50:23.741Z,98925.50
2022-12-22T05:52:58.763Z,98928.81
2022-12-22T05:55:25.984Z,98932.31
2022-12-22T05:57:52.776Z,98926.56
2022-12-22T06:00:21.363Z,98929.03
2022-12-22T06:02:48.237Z,98921.63
2022-12-22T06:05:15.495Z,98933.00
2022-12-22T06:07:44.092Z,98927.59
2022-12-22T06:10:14.067Z,98923.41
2022-12-22T06:12:41.883Z,98927.38
2022-12-22T06:15:13.221Z,98921.16
2022-12-22T06:17:44.606Z,98908.69
2022-12-22T06:20:13.803Z,98913.88
2022-12-22T06:22:40.794Z,98901.81
2022-12-22T06:25:15.601Z,98909.91
2022-12-22T06:27:46.697Z,98905.06
2022-12-22T06:30:15.230Z,98905.22
2022-12-22T06:32:42.488Z,98917.06
2022-12-22T06:35:10.184Z,98923.06
2022-12-22T06:37:37.512Z,98917.53
2022-12-22T06:40:06.604Z,98921.28
2022-12-22T06:42:35.233Z,98920.72
2022-12-22T06:45:02.180Z,98923.75
2022-12-22T06:47:29.699Z,98925.66
2022-12-22T06:49:56.646Z,98926.22
2022-12-22T06:52:23.398Z,98918.78
2022-12-22T06:54:50.218Z,98923.72
2022-12-22T06:57:17.545Z,98930.19
2022-12-22T06:59:45.829Z,98924.66
2022-12-22T07:02:12.946Z,98928.22
2022-12-22T07:04:39.752Z,98935.84
2022-12-22T07:07:06.767Z,98938.53
2022-12-22T07:09:33.571Z,98947.25
2022-12-22T07:12:00.491Z,98953.13
2022-12-22T07:14:27.254Z,98955.22
2022-12-22T07:16:55.477Z,98947.72
2022-12-22T07:19:22.365Z,98948.19
2022-12-22T07:23:04.383Z,98958.75
2022-12-22T07:25:31.368Z,98950.97
2022-12-22T07:27:58.510Z,98960.88
2022-12-22T07:30:25.426Z,98963.78
2022-12-22T07:32:53.584Z,98958.31
2022-12-22T07:35:20.322Z,98965.25
2022-12-22T07:37:48.105Z,98972.19
2022-12-22T07:40:16.089Z,98968.88
2022-12-22T07:42:43.948Z,98966.69
2022-12-22T07:45:11.481Z,98969.25
2022-12-22T07:47:38.404Z,98969.72
2022-12-22T07:50:10.112Z,98969.00
2022-12-22T07:52:37.084Z,98973.38
2022-12-22T07:55:04.724Z,98972.91
2022-12-22T07:57:31.440Z,98969.47
2022-12-22T07:59:58.220Z,98972.06
2022-12-22T08:02:25.146Z,98970.53
2022-12-22T08:04:52.162Z,98964.03
2022-12-22T08:07:20.249Z,98959.00
2022-12-22T08:09:47.125Z,98964.13
2022-12-22T08:12:13.993Z,98966.59
2022-12-22T08:14:41.015Z,98965.38
2022-12-22T08:17:07.745Z,98961.25
2022-12-22T08:19:34.491Z,98957.47
2022-12-22T08:22:01.361Z,98956.72
2022-12-22T08:24:29.794Z,98958.00
2022-12-22T08:27:07.387Z,98949.16
2022-12-22T08:29:41.111Z,98959.84
2022-12-22T08:32:09.711Z,98954.06
2022-12-22T08:35:04.591Z,98952.75
2022-12-22T08:37:34.569Z,98958.53
2022-12-22T08:40:08.205Z,98950.03
2022-12-22T08:42:37.917Z,98960.28
2022-12-22T08:45:06.490Z,98960.03
2022-12-22T08:47:33.301Z,98955.66
2022-12-22T08:50:00.369Z,98957.63
2022-12-22T08:52:27.184Z,98968.22
2022-12-22T08:54:54.202Z,98966.47
2022-12-22T08:57:22.383Z,98954.81
2022-12-22T08:59:49.221Z,98955.16
2022-12-22T09:02:16.343Z,98942.53
2022-12-22T09:04:43.251Z,98959.25
2022-12-22T09:07:10.140Z,98959.69
2022-12-22T09:09:36.993Z,98972.72
2022-12-22T09:12:04.498Z,98957.03
2022-12-22T09:14:33.031Z,98969.53
2022-12-22T09:17:00.577Z,98983.41
2022-12-22T09:19:27.392Z,98979.06
2022-12-22T09:21:55.246Z,98983.41
2022-12-22T09:24:22.533Z,98971.56
2022-12-22T09:26:49.479Z,98986.75
2022-12-22T09:29:16.455Z,98984.19
2022-12-22T09:31:45.451Z,99004.19
2022-12-22T09:34:17.681Z,99002.81
2022-12-22T09:36:46.311Z,99007.38
2022-12-22T09:39:14.194Z,98996.44
2022-12-22T09:41:47.840Z,99014.00
2022-12-22T09:44:23.922Z,98989.75
2022-12-22T09:46:53.929Z,99021.41
2022-12-22T09:49:22.185Z,99009.50
2022-12-22T09:51:54.185Z,99018.69
2022-12-22T09:54:22.464Z,99017.53
2022-12-22T09:56:49.424Z,99008.81
2022-12-22T09:59:19.557Z,98997.19
2022-12-22T10:02:14.564Z,99019.44
2022-12-22T10:04:56.713Z,99026.25
2022-12-22T10:07:31.866Z,99034.63
2022-12-22T10:10:04.257Z,99031.22
2022-12-22T10:12:31.453Z,99040.38
2022-12-22T10:14:58.539Z,99045.09
2022-12-22T10:17:31.652Z,99034.84
2022-12-22T10:20:20.800Z,99031.06
2022-12-22T10:22:51.320Z,99035.09
2022-12-22T10:25:45.330Z,99029.91
2022-12-22T10:28:24.355Z,99033.94
2022-12-22T10:31:20.140Z,99040.97
2022-12-22T10:33:51.400Z,99032.75
2022-12-22T10:36:25.409Z,99042.94
2022-12-22T10:38:59.073Z,99059.16
2022-12-22T10:41:30.917Z,99057.63
2022-12-22T10:44:02.971Z,99037.00
2022-12-22T10:46:37.363Z,99046.81
2022-12-22T10:49:18.951Z,99023.22
2022-12-22T10:51:51.869Z,99025.47
2022-12-22T10:54:32.300Z,99050.91
2022-12-22T10:57:02.305Z,99049.28
2022-12-22T10:59:29.240Z,99051.97
2022-12-22T11:02:26.112Z,99048.69
2022-12-22T11:05:01.030Z,99057.19
2022-12-22T11:07:32.011Z,99048.22
2022-12-22T11:09:59.237Z,99032.13
2022-12-22T11:12:45.676Z,99048.59
2022-12-22T11:15:27.481Z,99061.31
2022-12-22T11:18:13.429Z,99057.06
2022-12-22T11:21:01.548Z,99046.34
2022-12-22T11:23:42.058Z,99049.53
2022-12-22T11:26:25.125Z,99057.09
2022-12-22T11:29:20.100Z,99052.88
2022-12-22T11:32:16.710Z,99054.63
2022-12-22T11:35:02.655Z,99063.06
2022-12-22T11:37:48.407Z,99038.72
2022-12-22T11:40:30.405Z,99038.81
2022-12-22T11:43:20.781Z,99034.22
2022-12-22T11:46:05.645Z,99035.38
2022-12-22T11:48:56.312Z,99035.50
2022-12-22T11:51:48.931Z,99040.75
2022-12-22T11:54:44.688Z,99033.81
2022-12-22T11:57:32.557Z,99042.50
2022-12-22T12:00:09.517Z,99058.50
2022-12-22T12:03:37.043Z,99050.16
2022-12-22T12:06:33.779Z,99048.03
2022-12-22T12:09:27.858Z,99059.47
2022-12-22T12:12:09.416Z,99069.22
2022-12-22T12:14:51.378Z,99080.41
2022-12-22T12:17:38.499Z,99072.03
2022-12-22T12:20:27.763Z,99077.78
2022-12-22T12:23:19.603Z,99081.03
2022-12-22T12:26:00.553Z,99075.25
2022-12-22T12:28:47.285Z,99079.44
2022-12-22T12:31:24.432Z,99102.41
2022-12-22T12:33:58.061Z,99098.28
2022-12-22T12:36:40.116Z,99105.59
2022-12-22T12:39:18.437Z,99108.28
2022-12-22T12:42:01.322Z,99107.44
2022-12-22T12:44:34.865Z,99109.09
2022-12-22T12:47:23.724Z,99123.59
2022-12-22T12:50:34.787Z,99123.56
2022-12-22T12:53:09.154Z,99124.31
2022-12-22T12:56:06.598Z,99135.53
2022-12-22T12:59:03.721Z,99133.47
2022-12-22T13:01:58.717Z,99129.97
2022-12-22T13:05:26.280Z,99127.88
2022-12-22T13:08:19.689Z,99122.31
2022-12-22T13:11:04.691Z,99151.13
2022-12-22T13:13:50.538Z,99159.28
2022-12-22T13:16:36.736Z,99156.59
2022-12-22T13:19:18.962Z,99165.78
2022-12-22T13:21:54.951Z,99153.19
2022-12-22T13:24:29.894Z,99171.34
2022-12-22T13:27:05.527Z,99182.75
2022-12-22T13:33:38.864Z,99185.25
2022-12-22T13:36:15.643Z,99184.16
2022-12-22T13:38:43.162Z,99182.53
2022-12-22T13:41:24.710Z,99189.00
2022-12-22T13:44:02.532Z,99195.84
2022-12-22T13:46:32.530Z,99206.78
2022-12-22T13:48:59.716Z,99207.97
2022-12-22T13:51:30.425Z,99206.31
2022-12-22T13:54:12.365Z,99213.59
2022-12-22T13:56:45.590Z,99207.50
2022-12-22T13:59:28.316Z,99216.09
2022-12-22T14:02:00.239Z,99216.91
2022-12-22T14:04:28.283Z,99221.88
2022-12-22T14:06:55.581Z,99219.38
2022-12-22T14:09:25.067Z,99216.19
2022-12-22T14:12:03.604Z,99223.28
2022-12-22T14:14:36.175Z,99219.13
2022-12-22T14:17:04.519Z,99233.72
2022-12-22T14:19:37.138Z,99222.75
2022-12-22T14:22:11.139Z,99233.03
2022-12-22T14:24:46.004Z,99228.41
2022-12-22T14:27:26.607Z,99230.88
2022-12-22T14:29:54.552Z,99233.97
2022-12-22T14:32:42.818Z,99232.44
2022-12-22T14:35:25.734Z,99236.81
2022-12-22T14:37:55.832Z,99234.31
2022-12-22T14:40:31.916Z,99230.31
2022-12-22T14:43:03.900Z,99227.84
2022-12-22T14:45:31.346Z,99239.97
2022-12-22T14:47:58.145Z,99234.75
2022-12-22T14:50:28.725Z,99241.38
2022-12-22T14:53:01.907Z,99249.81
2022-12-22T14:56:27.349Z,99261.03
2022-12-22T14:59:21.716Z,99257.78
2022-12-22T15:02:22.632Z,99266.88
2022-12-22T15:08:38.783Z,99269.22
2022-12-22T15:11:45.207Z,99258.03
2022-12-22T15:14:20.153Z,99266.72
2022-12-22T15:16:49.996Z,99271.31
2022-12-22T15:19:26.316Z,99279.97
2022-12-22T15:21:55.188Z,99272.31
2022-12-22T15:24:58.075Z,99272.75
2022-12-22T15:27:44.709Z,99279.59
2022-12-22T15:30:19.876Z,99288.38
2022-12-22T15:32:47.393Z,99281.28
2022-12-22T15:35:24.512Z,99284.06
2022-12-22T15:37:51.920Z,99286.13
2022-12-22T15:40:22.253Z,99277.19
2022-12-22T15:42:51.019Z,99285.22
2022-12-22T15:45:23.425Z,99276.94
2022-12-22T15:47:54.539Z,99270.03
2022-12-22T15:50:27.240Z,99270.19
2022-12-22T15:52:58.817Z,99265.59
2022-12-22T15:55:26.883Z,99267.94
2022-12-22T15:57:59.127Z,99267.25
2022-12-22T16:00:29.190Z,99262.75
2022-12-22T16:02:58.239Z,99275.59
2022-12-22T16:05:25.338Z,99272.81
2022-12-22T16:07:52.334Z,99281.50
2022-12-22T16:10:25.288Z,99274.81
2022-12-22T16:12:54.428Z,99276.47
2022-12-22T16:15:22.484Z,99273.91
2022-12-22T16:17:52.960Z,99260.38
2022-12-22T16:20:38.105Z,99259.31
2022-12-22T16:23:12.983Z,99260.38
2022-12-22T16:25:40.379Z,99259.75
2022-12-22T16:28:12.051Z,99259.63
2022-12-22T16:30:43.489Z,99263.56
2022-12-22T16:33:12.613Z,99262.09
2022-12-22T16:35:40.543Z,99258.69
2022-12-22T16:38:10.616Z,99253.88
2022-12-22T16:40:46.370Z,99251.28
2022-12-22T16:46:13.840Z,99249.00
2022-12-22T16:48:45.963Z,99246.53
2022-12-22T16:51:19.194Z,99247.59
2022-12-22T16:53:46.011Z,99246.19
2022-12-22T16:56:18.756Z,99244.16
2022-12-22T16:58:52.040Z,99246.25
2022-12-22T17:01:31.622Z,99236.19
2022-12-22T17:04:09.208Z,99236.44
2022-12-22T17:06:37.113Z,99237.50
2022-12-22T17:09:11.051Z,99246.88
2022-12-22T17:11:37.970Z,99243.97
2022-12-22T17:14:10.518Z,99243.19
2022-12-22T17:16:40.410Z,99242.75
2022-12-22T17:19:11.114Z,99245.66
2022-12-22T17:21:38.470Z,99241.56
2022-12-22T17:24:05.951Z,99229.56
2022-12-22T17:26:36.588Z,99223.09
2022-12-22T17:29:04.971Z,99227.44
2022-12-22T17:31:31.859Z,99231.41
2022-12-22T17:34:15.244Z,99223.38
2022-12-22T17:36:44.761Z,99224.06
2022-12-22T17:39:15.065Z,99211.84
2022-12-22T17:41:49.078Z,99219.13
2022-12-22T17:44:50.993Z,99210.44
2022-12-22T17:47:42.141Z,99203.00
2022-12-22T17:50:15.646Z,99198.28
2022-12-22T17:52:44.922Z,99194.97
2022-12-22T17:56:06.052Z,99188.53
2022-12-22T17:59:01.474Z,99185.44
2022-12-22T18:04:19.228Z,99180.50
2022-12-22T18:06:48.255Z,99174.66
2022-12-22T18:09:39.006Z,99171.50
2022-12-22T18:12:24.442Z,99170.31
2022-12-22T18:14:53.257Z,99163.91
2022-12-22T18:17:36.105Z,99162.22
2022-12-22T18:20:06.195Z,99158.50
2022-12-22T18:22:34.915Z,99157.00
2022-12-22T18:25:02.668Z,99138.84
2022-12-22T18:27:31.333Z,99131.41
2022-12-22T18:29:59.201Z,99121.91
2022-12-22T18:32:28.102Z,99121.06
2022-12-22T18:34:57.157Z,99110.94
2022-12-22T18:37:28.139Z,99105.16
2022-12-22T18:39:58.296Z,99110.72
2022-12-22T18:42:25.440Z,99107.06
2022-12-22T18:44:54.303Z,99112.22
2022-12-22T18:47:21.482Z,99106.16
2022-12-22T18:49:48.562Z,99103.91
2022-12-22T18:52:19.536Z,99101.78
2022-12-22T18:54:47.102Z,99106.72
2022-12-22T18:57:18.543Z,99107.44
2022-12-22T18:59:46.331Z,99111.59
2022-12-22T19:02:23.009Z,99107.00
2022-12-22T19:04:50.918Z,99107.00
2022-12-22T19:07:20.857Z,99105.63
2022-12-22T19:09:48.673Z,99110.22
2022-12-22T19:12:20.723Z,99104.44
2022-12-22T19:14:54.667Z,99094.31
2022-12-22T19:17:26.718Z,99091.84
2022-12-22T19:19:53.464Z,99096.19
2022-12-22T19:22:23.619Z,99087.16
2022-12-22T19:32:42.375Z,99075.56
2022-12-22T19:35:20.276Z,99066.88
2022-12-22T19:38:20.848Z,99064.31
2022-12-22T19:40:52.251Z,99054.41
2022-12-22T19:43:20.116Z,99058.41
2022-12-22T19:49:40.437Z,99057.56
2022-12-22T19:52:09.650Z,99061.75
2022-12-22T19:54:36.858Z,99056.00
2022-12-22T19:57:08.427Z,99060.56
2022-12-22T20:00:04.690Z,99062.78
2022-12-22T20:04:34.038Z,99058.28
2022-12-22T20:08:00.231Z,99043.22
2022-12-22T20:10:35.963Z,99055.78
2022-12-22T20:13:15.352Z,99045.28
2022-12-22T20:15:48.150Z,99045.91
2022-12-22T20:18:20.099Z,99046.94
2022-12-22T20:20:57.516Z,99049.84
2022-12-22T20:23:30.387Z,99038.69
2022-12-22T20:26:06.027Z,99030.00
2022-12-22T20:28:36.936Z,99035.84
2022-12-22T20:31:06.186Z,99031.75
2022-12-22T20:33:34.812Z,99024.94
2022-12-22T20:40:33.891Z,99006.56
2022-12-22T20:43:01.746Z,99005.50
2022-12-22T20:45:31.428Z,99002.13
2022-12-22T20:47:59.817Z,98997.56
2022-12-22T20:50:30.754Z,98996.78
2022-12-22T20:52:59.085Z,98995.50
2022-12-22T20:55:28.499Z,98999.69
2022-12-22T20:57:56.673Z,98992.22
2022-12-22T21:00:27.847Z,98995.06
2022-12-22T21:02:55.646Z,98986.28
2022-12-22T21:05:25.813Z,98988.50
2022-12-22T21:07:52.999Z,98988.75
2022-12-22T21:10:24.480Z,99003.28
2022-12-22T21:12:55.737Z,98981.91
2022-12-22T21:15:26.364Z,98984.84
2022-12-22T21:17:58.774Z,98976.72
2022-12-22T21:20:33.854Z,98977.81
2022-12-22T21:23:00.895Z,98974.50
2022-12-22T21:25:27.804Z,98968.28
2022-12-22T21:27:56.882Z,98955.88
2022-12-22T21:30:26.547Z,98951.41
2022-12-22T21:32:56.921Z,98948.34
2022-12-22T21:35:27.550Z,98946.69
2022-12-22T21:37:57.815Z,98961.91
2022-12-22T21:40:27.580Z,98954.75
2022-12-22T21:42:56.635Z,98949.22
2022-12-22T21:45:28.063Z,98943.81
2022-12-22T21:47:55.372Z,98938.88
2022-12-22T21:50:26.270Z,98935.56
2022-12-22T21:52:53.660Z,98917.75
2022-12-22T21:55:26.117Z,98933.19
2022-12-22T21:57:53.511Z,98925.53
2022-12-22T22:00:27.378Z,98905.78
2022-12-22T22:02:56.345Z,98890.50
2022-12-22T22:05:29.013Z,98886.63
2022-12-22T22:07:58.342Z,98878.56
2022-12-22T22:10:29.634Z,98864.22
2022-12-22T22:12:56.970Z,98860.69
2022-12-22T22:16:11.148Z,98862.09
2022-12-22T22:18:39.768Z,98857.53
2022-12-22T22:21:10.868Z,98852.53
2022-12-22T22:23:38.189Z,98852.88
2022-12-22T22:26:06.385Z,98846.91
2022-12-22T22:28:35.962Z,98847.03
2022-12-22T22:31:12.679Z,98836.47
2022-12-22T22:33:39.704Z,98841.16
2022-12-22T22:36:07.882Z,98839.66
2022-12-22T22:38:35.537Z,98834.84
2022-12-22T22:41:02.804Z,98825.41
2022-12-22T22:43:29.765Z,98820.16
2022-12-22T22:45:56.605Z,98819.44
2022-12-22T22:48:24.887Z,98822.13
2022-12-22T22:50:51.663Z,98809.44
2022-12-22T22:53:18.848Z,98806.84
2022-12-22T22:55:45.632Z,98801.44
2022-12-22T22:58:12.675Z,98790.03
2022-12-22T23:00:40.122Z,98795.69
2022-12-22T23:03:07.065Z,98770.00
2022-12-22T23:05:36.340Z,98773.00
2022-12-22T23:08:03.507Z,98773.47
2022-12-22T23:10:32.648Z,98769.94
2022-12-22T23:13:01.879Z,98768.91
2022-12-22T23:15:28.636Z,98767.72
2022-12-22T23:17:55.592Z,98768.06
2022-12-22T23:20:22.393Z,98770.41
2022-12-22T23:22:50.759Z,98764.44
2022-12-22T23:25:18.329Z,98761.97
2022-12-22T23:27:45.383Z,98759.50
2022-12-22T23:30:13.712Z,98760.81
2022-12-22T23:32:40.726Z,98750.72
2022-12-22T23:35:08.377Z,98763.59
2022-12-22T23:37:35.343Z,98753.25
2022-12-22T23:40:41.895Z,98749.16
2022-12-22T23:42:56.596Z,98740.47
2022-12-22T23:45:24.091Z,98744.09
2022-12-22T23:47:50.820Z,98727.91
2022-12-22T23:50:17.785Z,98731.28
2022-12-22T23:52:49.149Z,98726.59
2022-12-22T23:55:18.389Z,98728.97
2022-12-22T23:57:45.835Z,98728.75
